Klodzko, Poland

3:00 PM CEST on October 21, 2014 (GMT +0200)
IKRALOVE6 | Change Station
CLOSE
Current Station
Personal Weather Station
Location: Nove Mesto Nad Metuji, Kralovehradecky kraj
Elevation: 990 ft
Nearby Weather Stations

Elev 990 ft 50.36 °N, 16.12 °E | Updated 17 seconds ago

Partly Cloudy
Partly Cloudy
58.1 °F
Feels Like 58.1 °F
N
7.0
Wind Variable Wind from SW
Gusts 15.0 mph

Today
High -- | Low -- °F
--% Chance of Precip.
Yesterday
High -- | Low -- °F
Precip. -- in
7:25 AM 5:50 PM
Waning Crescent, 6% visible
Pressure 29.77 in
Visibility 6.2 miles
Clouds Few 4000 ft
Dew Point 49 °F
Humidity 72%
Rainfall 0.00 in
Snow Depth Not available.
UV 2 out of 12
Pollen Not available.
Air Quality Not available.
Flu Activity Not available.
METAR EPWR 211230Z 21004KT 160V260 9999 FEW040 17/09 Q1008

More Conditions Fewer Conditions

Pressure 29.77 in
Visibility 6.2 miles
Clouds Few 4000 ft
Dew Point 49 °F
Humidity 72%
Rainfall 0.00 in
Snow Depth Not available.
UV 2 out of 12
Pollen Not available.
Air Quality Not available.
Flu Activity Not available.
METAR EPWR 211230Z 21004KT 160V260 9999 FEW040 17/09 Q1008

More Conditions Fewer Conditions

10-Day Weather Forecast

Almanac

Astronomy

Oct. 21, 2014 Rise Set
Actual Time 7:25 AM CEST 5:50 PM CEST
Civil Twilight 6:52 AM CEST 6:23 PM CEST
Nautical Twilight 6:14 AM CEST 7:01 PM CEST
Astronomical Twilight 5:36 AM CEST 7:38 PM CEST
Moon 4:38 AM CEST 4:46 PM CEST
Length of Visible Light 11h 31m
Length of Day
10h 24m
Tomorrow will be 3m 38s shorter.
Waning Crescent, 6% of the Moon is Illuminated
Today
Waning Crescent
Oct 23
New
Oct 30
First Quarter
Nov 6
Full
Nov 14
Last Quarter

Yesterday's Extremes

Country Highs Country Lows

Community

WunderPhotos

Upload Photos

1,763,656 photos uploaded!

Nearby

Snow Depth

Not available.

Earthquake Activity

City Distance Mag. Time & Date
No recent earthquake activity has been reported nearby.
Minimum magnitude displayed is 2.5.

Coastal Water Temperatures

Place Temperature
No Stations Reporting

Nearby Weather Stations